Time;durP1;ratioP1;P1;durP2;ratioP2;P2;SDS_P1;SDS_P2;PMS_P1;PMS_P2;Temp;Humidity;BMP_temperature;BMP_pressure;BME280_temperature;BME280_humidity;BME280_pressure;Samples;Min_cycle;Max_cycle;Signal;HPM_P1;HPM_P2
2021/05/15 00:01:45;;;;;;;2.85;0.98;;;14.00;96.70;;;;;;5076827;28;20043;-76
2021/05/15 00:04:13;;;;;;;2.90;1.05;;;14.00;96.70;;;;;;5072790;28;20052;-76
2021/05/15 00:06:41;;;;;;;4.20;1.25;;;14.00;96.70;;;;;;5060696;28;20401;-76
2021/05/15 00:09:08;;;;;;;4.93;1.33;;;14.00;96.70;;;;;;5076144;28;20044;-76
2021/05/15 00:11:37;;;;;;;2.78;1.02;;;14.00;96.70;;;;;;5077220;28;20139;-76
2021/05/15 00:14:04;;;;;;;3.35;1.13;;;14.00;96.70;;;;;;5062533;28;20050;-76
2021/05/15 00:16:33;;;;;;;1.75;1.15;;;13.90;96.70;;;;;;5072233;28;20114;-76
2021/05/15 00:19:01;;;;;;;3.25;1.45;;;13.90;96.70;;;;;;5059912;28;20039;-76
2021/05/15 00:21:28;;;;;;;2.70;1.35;;;14.00;96.70;;;;;;5060036;28;20040;-76
2021/05/15 00:23:55;;;;;;;3.80;2.35;;;14.00;96.70;;;;;;5055710;28;20067;-76
2021/05/15 00:26:22;;;;;;;7.20;3.40;;;14.00;96.70;;;;;;5059169;28;20125;-76
2021/05/15 00:28:49;;;;;;;7.47;4.10;;;14.00;96.70;;;;;;5058800;28;20885;-76
2021/05/15 00:31:15;;;;;;;7.22;4.13;;;14.00;96.70;;;;;;5061638;28;20032;-76
2021/05/15 00:34:07;;;;;;;9.73;4.72;;;14.00;96.70;;;;;;5058626;28;20063;-76
2021/05/15 00:36:34;;;;;;;7.07;3.03;;;14.00;96.70;;;;;;5084579;28;20048;-76
2021/05/15 00:39:01;;;;;;;4.82;2.15;;;14.00;96.70;;;;;;5096882;28;20444;-76
2021/05/15 00:41:28;;;;;;;3.88;1.88;;;13.90;96.70;;;;;;5098966;28;20039;-76
2021/05/15 00:46:46;;;;;;;3.15;1.13;;;13.80;96.70;;;;;;5097040;28;20054;-76
2021/05/15 00:49:16;;;;;;;3.42;1.02;;;13.90;96.70;;;;;;5101027;28;20043;-76
2021/05/15 00:51:45;;;;;;;3.78;0.90;;;13.90;96.70;;;;;;5102614;28;20047;-76
2021/05/15 00:54:15;;;;;;;2.95;0.95;;;13.90;96.70;;;;;;5101045;28;20507;-76
2021/05/15 00:56:44;;;;;;;4.10;1.13;;;14.00;96.70;;;;;;5085339;28;20046;-76
2021/05/15 00:59:12;;;;;;;2.10;1.02;;;13.90;96.70;;;;;;5102764;28;20043;-76
2021/05/15 01:01:41;;;;;;;3.55;1.15;;;13.90;96.70;;;;;;5103790;28;20047;-76
2021/05/15 01:04:09;;;;;;;2.90;1.25;;;13.70;96.70;;;;;;5100408;28;20039;-76
2021/05/15 01:06:39;;;;;;;3.20;1.00;;;13.80;96.70;;;;;;5087100;28;20063;-76
2021/05/15 01:09:06;;;;;;;2.47;0.80;;;13.90;96.70;;;;;;5085054;28;20050;-76
2021/05/15 01:11:34;;;;;;;2.80;0.88;;;13.70;96.70;;;;;;5103897;27;20071;-76
2021/05/15 01:14:02;;;;;;;3.42;1.20;;;13.60;96.70;;;;;;5098490;27;20036;-76
2021/05/15 01:16:32;;;;;;;3.65;0.82;;;13.60;96.70;;;;;;5100789;28;20035;-76
2021/05/15 01:19:00;;;;;;;2.15;0.98;;;13.60;96.70;;;;;;5100010;28;20512;-76
2021/05/15 01:21:38;;;;;;;1.40;0.52;;;13.60;96.70;;;;;;5098188;28;20450;-76
2021/05/15 01:24:07;;;;;;;3.53;1.00;;;13.60;96.70;;;;;;5102097;28;20302;-77
2021/05/15 01:26:33;;;;;;;1.75;1.00;;;13.60;96.70;;;;;;5100590;28;20116;-76
2021/05/15 01:29:03;;;;;;;2.80;1.05;;;13.60;96.70;;;;;;5103082;28;20050;-77
2021/05/15 01:31:31;;;;;;;5.15;1.38;;;13.50;96.70;;;;;;5100036;28;20039;-76
2021/05/15 01:33:58;;;;;;;2.40;1.00;;;13.40;96.70;;;;;;5104614;28;20066;-77
2021/05/15 01:36:26;;;;;;;1.60;0.70;;;13.30;96.70;;;;;;5099423;28;20043;-77
2021/05/15 01:38:54;;;;;;;2.17;0.70;;;13.30;96.70;;;;;;5102183;28;20052;-77
2021/05/15 01:41:22;;;;;;;5.38;2.58;;;13.40;96.70;;;;;;5100966;28;20558;-77
2021/05/15 01:43:49;;;;;;;7.82;3.15;;;13.40;96.70;;;;;;5097694;28;20044;-76
2021/05/15 01:46:22;;;;;;;5.90;2.15;;;13.30;96.70;;;;;;5096449;28;20039;-77
2021/05/15 01:48:49;;;;;;;6.07;2.10;;;13.30;96.70;;;;;;5101561;28;20039;-77
2021/05/15 01:51:16;;;;;;;5.53;1.67;;;13.20;96.70;;;;;;5100127;28;20047;-77
2021/05/15 01:53:45;;;;;;;7.13;1.55;;;13.20;96.70;;;;;;5101334;28;20059;-76
2021/05/15 01:56:14;;;;;;;5.30;2.00;;;13.20;96.70;;;;;;5101927;28;20036;-77
2021/05/15 01:58:44;;;;;;;5.50;1.88;;;13.20;96.70;;;;;;5108385;27;20338;-77
2021/05/15 02:01:11;;;;;;;4.72;1.65;;;13.20;96.70;;;;;;5106042;27;20047;-77
2021/05/15 02:03:41;;;;;;;3.88;1.33;;;13.20;96.70;;;;;;5098685;28;20517;-77
2021/05/15 02:06:09;;;;;;;1.70;0.65;;;13.10;96.70;;;;;;5099467;28;20032;-77
2021/05/15 02:08:37;;;;;;;0.70;0.55;;;13.10;96.70;;;;;;5097599;28;20039;-77
2021/05/15 02:11:04;;;;;;;2.67;1.17;;;13.00;96.70;;;;;;5096700;28;20046;-77
2021/05/15 02:13:32;;;;;;;5.35;1.77;;;13.00;96.70;;;;;;5102970;27;20564;-77
2021/05/15 02:16:00;;;;;;;4.68;2.28;;;13.00;96.70;;;;;;5102261;27;20036;-77
2021/05/15 02:18:28;;;;;;;4.53;1.40;;;13.00;96.70;;;;;;5101409;28;20035;-77
2021/05/15 02:20:56;;;;;;;5.05;1.20;;;13.00;96.70;;;;;;5097776;28;20481;-76
2021/05/15 02:23:25;;;;;;;3.33;0.88;;;13.00;96.70;;;;;;5102522;28;20043;-76
2021/05/15 02:25:54;;;;;;;1.70;0.70;;;12.90;96.70;;;;;;5092343;28;20031;-77
2021/05/15 02:28:28;;;;;;;2.00;0.55;;;12.90;96.70;;;;;;5102513;28;20104;-77
2021/05/15 02:30:58;;;;;;;1.45;0.68;;;12.90;96.70;;;;;;5098113;28;20059;-76
2021/05/15 02:33:26;;;;;;;0.85;0.50;;;12.90;96.70;;;;;;5100267;28;20046;-77
2021/05/15 02:35:54;;;;;;;1.63;0.45;;;13.00;96.70;;;;;;5101123;28;20537;-77
2021/05/15 02:38:23;;;;;;;2.95;0.52;;;12.90;96.70;;;;;;5081800;28;20065;-77
2021/05/15 02:40:54;;;;;;;1.70;0.73;;;12.90;96.70;;;;;;5102090;28;20503;-77
2021/05/15 02:43:22;;;;;;;1.58;0.68;;;12.80;96.70;;;;;;5096669;28;20047;-77
2021/05/15 02:45:51;;;;;;;2.83;0.50;;;12.70;96.70;;;;;;5103174;28;20044;-77
2021/05/15 02:48:20;;;;;;;1.25;0.90;;;12.70;96.70;;;;;;5098539;28;20480;-77
2021/05/15 02:50:49;;;;;;;3.95;0.50;;;12.80;96.70;;;;;;5096211;28;20040;-77
2021/05/15 02:53:20;;;;;;;1.55;0.55;;;12.80;96.70;;;;;;5099246;28;20032;-77
2021/05/15 02:55:48;;;;;;;1.70;0.60;;;12.90;96.70;;;;;;5101781;28;20043;-77
2021/05/15 02:58:18;;;;;;;2.10;1.10;;;12.90;96.70;;;;;;5097310;28;20568;-76
2021/05/15 03:00:45;;;;;;;1.60;0.45;;;12.80;96.70;;;;;;5096050;28;20044;-77
2021/05/15 03:03:12;;;;;;;1.08;0.40;;;12.80;96.70;;;;;;5083371;28;20042;-77
2021/05/15 03:05:40;;;;;;;2.65;0.77;;;12.70;96.70;;;;;;5100341;28;20456;-77
2021/05/15 03:08:08;;;;;;;0.90;0.40;;;12.70;96.70;;;;;;5082406;28;20088;-77
2021/05/15 03:10:35;;;;;;;2.55;0.70;;;12.70;96.70;;;;;;5101771;28;20050;-77
2021/05/15 03:13:02;;;;;;;0.60;0.30;;;12.60;96.70;;;;;;5099988;28;20097;-77
2021/05/15 03:15:29;;;;;;;1.23;0.52;;;12.60;96.70;;;;;;5104806;27;20508;-77
2021/05/15 03:17:56;;;;;;;1.48;0.50;;;12.60;96.70;;;;;;5096689;28;20518;-77
2021/05/15 03:20:24;;;;;;;2.03;0.50;;;12.50;96.70;;;;;;5098483;28;20046;-77
2021/05/15 03:22:53;;;;;;;1.77;0.50;;;12.60;96.70;;;;;;5081824;28;20047;-77
2021/05/15 03:25:21;;;;;;;1.95;0.60;;;12.60;96.70;;;;;;5101909;28;20028;-77
2021/05/15 03:27:48;;;;;;;1.60;0.65;;;12.60;96.70;;;;;;5098380;28;20092;-77
2021/05/15 03:30:17;;;;;;;1.50;0.70;;;12.60;96.70;;;;;;5100001;28;20058;-77
2021/05/15 03:32:44;;;;;;;3.22;0.80;;;12.60;96.70;;;;;;5100265;28;20399;-77
2021/05/15 03:35:13;;;;;;;1.60;0.80;;;12.60;96.70;;;;;;5106716;27;20427;-77
2021/05/15 03:37:41;;;;;;;3.28;0.70;;;12.60;96.70;;;;;;5096745;28;20047;-77
2021/05/15 03:40:10;;;;;;;3.20;0.60;;;12.50;96.70;;;;;;5083816;28;20523;-77
2021/05/15 03:42:38;;;;;;;2.28;0.63;;;12.50;96.70;;;;;;5096468;28;20114;-77
2021/05/15 03:45:07;;;;;;;1.65;0.50;;;12.40;96.70;;;;;;5083596;28;20055;-76
2021/05/15 03:47:35;;;;;;;1.50;0.40;;;12.50;96.70;;;;;;5095878;28;20138;-76
2021/05/15 03:50:03;;;;;;;1.25;0.40;;;12.40;96.70;;;;;;5097984;28;20032;-76
2021/05/15 03:52:30;;;;;;;1.63;0.50;;;12.40;96.70;;;;;;5081524;28;20040;-77
2021/05/15 03:54:57;;;;;;;1.17;0.30;;;12.40;96.70;;;;;;5100240;28;20048;-77
2021/05/15 03:57:25;;;;;;;1.98;0.80;;;12.30;96.70;;;;;;5081354;28;20594;-76
2021/05/15 03:59:52;;;;;;;5.45;1.48;;;12.40;96.70;;;;;;5099234;28;20039;-77
2021/05/15 04:02:22;;;;;;;6.53;1.55;;;12.20;96.70;;;;;;5098098;28;20043;-76
2021/05/15 04:04:50;;;;;;;9.07;1.88;;;12.30;96.70;;;;;;5105806;28;20126;-77
2021/05/15 04:07:17;;;;;;;4.78;1.63;;;12.40;96.70;;;;;;5093355;28;20177;-77
2021/05/15 04:09:44;;;;;;;5.75;2.00;;;12.40;96.70;;;;;;5096966;28;20122;-77
2021/05/15 04:12:13;;;;;;;4.13;1.40;;;12.30;96.70;;;;;;5092418;28;20071;-76
2021/05/15 04:14:51;;;;;;;3.20;1.42;;;12.40;96.70;;;;;;5097164;28;20753;-77
2021/05/15 04:17:28;;;;;;;5.00;1.52;;;12.40;96.70;;;;;;5094496;28;20070;-76
2021/05/15 04:19:55;;;;;;;2.92;1.58;;;12.40;96.70;;;;;;5099680;28;20027;-76
2021/05/15 04:22:22;;;;;;;3.65;1.38;;;12.40;96.70;;;;;;5083560;28;20056;-76
2021/05/15 04:24:49;;;;;;;3.00;1.30;;;12.50;96.70;;;;;;5091815;28;20093;-76
2021/05/15 04:27:17;;;;;;;5.95;1.70;;;12.50;96.70;;;;;;5102912;28;20043;-76
2021/05/15 04:29:46;;;;;;;4.75;1.77;;;12.50;96.70;;;;;;5100636;28;20080;-76
2021/05/15 04:32:13;;;;;;;2.58;1.80;;;12.50;96.70;;;;;;5103186;28;20214;-76
2021/05/15 04:34:40;;;;;;;2.95;1.77;;;12.40;96.70;;;;;;5102467;28;20094;-77
2021/05/15 04:37:07;;;;;;;3.17;2.20;;;12.40;96.70;;;;;;5102850;28;20039;-76
2021/05/15 04:39:34;;;;;;;4.43;3.13;;;12.40;96.70;;;;;;5100690;28;20433;-77
2021/05/15 04:42:02;;;;;;;4.50;2.63;;;12.40;96.70;;;;;;5101075;28;20580;-77
2021/05/15 04:44:29;;;;;;;5.03;2.50;;;12.40;96.70;;;;;;5101259;28;20061;-76
2021/05/15 04:46:57;;;;;;;4.40;3.00;;;12.40;96.70;;;;;;5100962;28;20096;-76
2021/05/15 04:49:24;;;;;;;4.30;2.75;;;12.40;96.70;;;;;;5097258;28;20044;-77
2021/05/15 04:51:52;;;;;;;4.93;2.83;;;12.50;96.70;;;;;;5103468;28;20052;-77
2021/05/15 04:54:19;;;;;;;4.95;3.47;;;12.50;96.70;;;;;;5098572;28;20085;-76
2021/05/15 04:56:46;;;;;;;6.13;4.55;;;12.60;96.70;;;;;;5102925;28;20492;-77
2021/05/15 04:59:14;;;;;;;6.03;4.28;;;12.60;96.70;;;;;;5102842;28;20043;-77
2021/05/15 05:01:42;;;;;;;6.30;4.65;;;12.60;96.70;;;;;;5102398;28;20047;-77
2021/05/15 05:04:10;;;;;;;5.35;3.90;;;12.60;96.70;;;;;;5103784;28;20489;-77
2021/05/15 05:06:37;;;;;;;4.40;2.85;;;12.60;96.70;;;;;;5103505;28;20575;-77
2021/05/15 05:09:04;;;;;;;3.50;2.63;;;12.60;96.70;;;;;;5100263;28;20158;-77
2021/05/15 05:11:31;;;;;;;3.08;2.30;;;12.50;96.70;;;;;;5103631;28;20043;-76
2021/05/15 05:13:58;;;;;;;2.47;1.75;;;12.50;96.70;;;;;;5105366;27;20032;-77
2021/05/15 05:16:26;;;;;;;2.25;1.52;;;12.50;96.70;;;;;;5102450;28;20581;-76
2021/05/15 05:18:53;;;;;;;2.92;1.52;;;12.60;96.70;;;;;;5099969;28;20084;-76
2021/05/15 05:21:20;;;;;;;2.28;1.70;;;12.60;96.70;;;;;;5099582;28;20047;-76
2021/05/15 05:23:48;;;;;;;4.45;1.60;;;12.50;96.70;;;;;;5081759;28;20488;-76
2021/05/15 05:26:15;;;;;;;2.83;1.77;;;12.60;96.70;;;;;;5102246;28;20042;-77
2021/05/15 05:28:43;;;;;;;1.77;1.50;;;12.70;96.70;;;;;;5097782;28;20071;-76
2021/05/15 05:31:10;;;;;;;1.60;1.27;;;12.70;96.70;;;;;;5102026;28;20554;-76
2021/05/15 05:33:37;;;;;;;2.00;1.70;;;12.70;96.70;;;;;;5098080;28;20392;-77
2021/05/15 05:36:05;;;;;;;2.80;1.58;;;12.80;96.70;;;;;;5083126;28;20115;-77
2021/05/15 05:38:34;;;;;;;1.90;1.50;;;12.90;96.70;;;;;;5103194;28;20044;-76
2021/05/15 05:41:01;;;;;;;3.42;2.00;;;13.00;96.70;;;;;;5102193;28;20075;-76
2021/05/15 05:43:28;;;;;;;3.22;2.10;;;13.20;96.70;;;;;;5101805;28;20399;-76
2021/05/15 05:45:55;;;;;;;2.70;2.17;;;13.30;96.70;;;;;;5099070;28;20036;-77
2021/05/15 05:48:22;;;;;;;3.45;2.17;;;13.30;96.70;;;;;;5099666;28;20051;-77
2021/05/15 05:50:49;;;;;;;5.60;2.70;;;13.40;96.70;;;;;;5100387;28;20140;-77
2021/05/15 05:53:16;;;;;;;3.63;2.17;;;13.40;96.70;;;;;;5098865;28;20506;-77
2021/05/15 05:55:44;;;;;;;2.90;1.88;;;13.40;96.70;;;;;;5096074;28;20039;-76
2021/05/15 05:58:11;;;;;;;2.92;1.90;;;13.40;96.70;;;;;;5093754;28;20523;-75
2021/05/15 06:00:38;;;;;;;3.20;1.92;;;13.30;96.70;;;;;;5092718;28;20039;-78
2021/05/15 06:03:05;;;;;;;5.55;2.17;;;13.30;96.70;;;;;;5100016;28;20064;-76
2021/05/15 06:05:32;;;;;;;3.47;1.92;;;13.40;96.70;;;;;;5101110;27;20047;-77
2021/05/15 06:08:05;;;;;;;3.03;1.85;;;13.50;96.70;;;;;;5100702;28;20553;-77
2021/05/15 06:10:32;;;;;;;3.33;1.65;;;13.50;96.70;;;;;;5097811;28;20520;-77
2021/05/15 06:12:59;;;;;;;7.15;2.25;;;13.60;96.70;;;;;;5102462;28;20032;-76
2021/05/15 06:15:26;;;;;;;4.20;2.35;;;13.70;96.70;;;;;;5102080;27;20131;-76
2021/05/15 06:17:53;;;;;;;6.32;3.28;;;13.60;96.70;;;;;;5098823;28;20169;-77
2021/05/15 06:20:20;;;;;;;3.58;2.78;;;13.60;96.70;;;;;;5098466;28;20032;-77
2021/05/15 06:22:47;;;;;;;4.63;3.42;;;13.60;96.70;;;;;;5084715;28;20051;-77
2021/05/15 06:25:14;;;;;;;5.75;3.45;;;13.60;96.70;;;;;;5100430;28;20657;-77
2021/05/15 06:27:41;;;;;;;3.97;3.13;;;13.60;96.70;;;;;;5082373;28;20142;-77
2021/05/15 06:30:10;;;;;;;4.25;3.13;;;13.70;96.70;;;;;;5097142;28;20406;-77
2021/05/15 06:32:37;;;;;;;4.45;2.35;;;13.60;96.70;;;;;;5100024;28;20140;-77
2021/05/15 06:35:04;;;;;;;4.50;2.83;;;13.70;96.70;;;;;;5102214;28;20041;-76
2021/05/15 06:37:32;;;;;;;3.95;2.75;;;13.80;96.70;;;;;;5102172;28;20501;-76
2021/05/15 06:39:59;;;;;;;4.38;2.60;;;13.80;96.70;;;;;;5095322;28;20044;-76
2021/05/15 06:42:26;;;;;;;4.22;2.60;;;13.90;96.70;;;;;;5100209;28;20553;-76
2021/05/15 06:44:53;;;;;;;4.50;2.30;;;14.00;96.70;;;;;;5093367;28;20047;-76
2021/05/15 06:47:21;;;;;;;3.67;1.80;;;14.00;96.70;;;;;;5102023;28;20092;-76
2021/05/15 06:49:49;;;;;;;2.50;1.70;;;14.10;96.70;;;;;;5099186;28;20040;-76
2021/05/15 06:52:16;;;;;;;2.50;2.00;;;14.10;96.70;;;;;;5100852;28;20493;-76
2021/05/15 06:54:43;;;;;;;3.97;1.75;;;14.20;96.70;;;;;;5099955;28;20044;-75
2021/05/15 06:57:10;;;;;;;4.78;2.60;;;14.10;96.70;;;;;;5101753;28;20032;-76
2021/05/15 06:59:37;;;;;;;3.92;2.22;;;14.10;96.70;;;;;;5101009;28;20064;-76
2021/05/15 07:02:04;;;;;;;4.82;3.10;;;14.10;96.70;;;;;;5100819;28;20136;-76
2021/05/15 07:04:32;;;;;;;4.40;2.80;;;14.20;96.70;;;;;;5080236;28;20047;-76
2021/05/15 07:06:59;;;;;;;4.60;2.88;;;14.20;96.70;;;;;;5098351;28;20366;-76
2021/05/15 07:09:26;;;;;;;4.22;2.75;;;14.30;96.70;;;;;;5093943;28;20036;-76
2021/05/15 07:11:52;;;;;;;2.88;2.30;;;14.30;96.70;;;;;;5098148;28;20532;-76
2021/05/15 07:14:19;;;;;;;4.38;2.00;;;14.40;96.70;;;;;;5100690;27;20189;-76
2021/05/15 07:16:46;;;;;;;3.35;2.20;;;14.40;96.70;;;;;;5101979;28;20104;-76
2021/05/15 07:19:14;;;;;;;4.05;2.50;;;14.40;96.70;;;;;;5083144;28;20031;-76
2021/05/15 07:21:42;;;;;;;3.88;2.10;;;14.30;96.70;;;;;;5098856;28;20120;-77
2021/05/15 07:24:09;;;;;;;3.55;2.15;;;14.30;96.70;;;;;;5100464;28;20197;-76
2021/05/15 07:26:36;;;;;;;3.88;1.90;;;14.50;96.70;;;;;;5100580;28;20044;-76
2021/05/15 07:29:04;;;;;;;3.30;1.63;;;14.60;96.70;;;;;;5095311;28;20051;-76
2021/05/15 07:31:31;;;;;;;3.53;1.52;;;14.70;96.70;;;;;;5101316;28;20035;-76
2021/05/15 07:33:59;;;;;;;3.58;1.50;;;14.80;96.70;;;;;;5078669;28;20477;-76
2021/05/15 07:36:26;;;;;;;4.22;1.63;;;14.90;96.70;;;;;;5099299;28;20032;-76
2021/05/15 07:38:54;;;;;;;3.95;1.70;;;15.00;96.70;;;;;;5101772;28;20447;-76
2021/05/15 07:41:22;;;;;;;3.50;1.55;;;15.10;96.70;;;;;;5097949;28;20036;-76
2021/05/15 07:43:49;;;;;;;2.20;0.95;;;15.20;96.70;;;;;;5094284;28;20477;-77
2021/05/15 07:46:16;;;;;;;3.45;1.10;;;15.30;96.70;;;;;;5097736;28;20085;-76
2021/05/15 07:48:43;;;;;;;3.00;1.10;;;15.40;96.70;;;;;;5088635;28;20075;-77
2021/05/15 07:51:11;;;;;;;2.30;0.98;;;15.50;96.70;;;;;;5096556;28;20044;-76
2021/05/15 07:53:38;;;;;;;2.08;1.42;;;15.50;96.70;;;;;;5101339;28;20501;-76
2021/05/15 07:56:07;;;;;;;3.35;1.20;;;15.50;96.70;;;;;;5097233;28;20126;-77
2021/05/15 07:58:34;;;;;;;3.53;1.48;;;15.50;96.70;;;;;;5100721;28;20504;-76
2021/05/15 08:01:00;;;;;;;2.90;1.20;;;15.40;96.70;;;;;;5097971;28;20039;-76
2021/05/15 08:03:27;;;;;;;4.20;1.30;;;15.60;96.70;;;;;;5079915;28;20062;-76
2021/05/15 08:05:54;;;;;;;5.60;1.80;;;15.70;96.70;;;;;;5091996;28;20043;-77
2021/05/15 08:08:21;;;;;;;2.70;1.48;;;15.70;96.70;;;;;;5099543;28;20074;-76
2021/05/15 08:10:48;;;;;;;3.03;1.40;;;15.70;96.70;;;;;;5102733;28;20043;-76
2021/05/15 08:13:16;;;;;;;3.97;1.52;;;15.70;96.70;;;;;;5090779;28;20040;-77
2021/05/15 08:15:44;;;;;;;2.03;1.30;;;15.60;96.70;;;;;;5109196;28;20416;-76
2021/05/15 08:18:11;;;;;;;4.20;1.40;;;15.70;96.70;;;;;;5098872;28;20480;-77
2021/05/15 08:20:38;;;;;;;2.33;1.10;;;15.80;96.70;;;;;;5098805;28;20039;-76
2021/05/15 08:23:05;;;;;;;2.95;1.48;;;16.00;96.70;;;;;;5101871;28;20032;-76
2021/05/15 08:25:32;;;;;;;3.33;1.33;;;16.10;96.70;;;;;;5096297;28;20047;-77
2021/05/15 08:28:03;;;;;;;7.57;1.80;;;16.20;96.70;;;;;;5098946;28;20151;-77
2021/05/15 08:30:32;;;;;;;2.38;1.33;;;16.30;96.70;;;;;;5099557;28;20046;-76
2021/05/15 08:32:59;;;;;;;3.50;1.10;;;16.40;96.70;;;;;;5099079;28;20048;-76
2021/05/15 08:35:26;;;;;;;2.35;1.17;;;16.50;96.70;;;;;;5097022;28;20046;-76
2021/05/15 08:37:54;;;;;;;3.45;1.20;;;16.60;96.70;;;;;;5092620;28;20255;-76
2021/05/15 08:40:22;;;;;;;4.05;1.40;;;16.90;96.70;;;;;;5096396;28;20143;-76
2021/05/15 08:42:49;;;;;;;2.85;1.27;;;17.10;96.70;;;;;;5101705;28;20036;-78
2021/05/15 08:45:16;;;;;;;3.58;1.40;;;17.20;96.70;;;;;;5092186;28;20040;-77
2021/05/15 08:47:45;;;;;;;1.98;0.80;;;17.30;96.70;;;;;;5096515;28;20051;-77
2021/05/15 08:50:13;;;;;;;1.70;1.00;;;17.30;96.70;;;;;;5095963;28;20055;-77
2021/05/15 08:52:42;;;;;;;3.15;1.08;;;17.30;96.70;;;;;;5082011;28;20113;-77
2021/05/15 08:55:11;;;;;;;2.67;1.10;;;17.40;96.70;;;;;;5094512;28;20161;-76
2021/05/15 08:57:38;;;;;;;1.20;0.90;;;17.50;96.70;;;;;;5098447;28;20035;-77
2021/05/15 09:00:11;;;;;;;2.15;1.15;;;17.60;96.70;;;;;;5097238;28;20047;-77
2021/05/15 09:02:39;;;;;;;3.30;1.67;;;17.80;96.70;;;;;;5099664;28;20450;-77
2021/05/15 09:05:15;;;;;;;3.67;2.03;;;17.70;96.70;;;;;;5099286;28;20101;-77
2021/05/15 09:07:50;;;;;;;1.90;0.63;;;17.60;96.70;;;;;;5097662;28;20046;-77
2021/05/15 09:10:19;;;;;;;2.38;0.65;;;17.70;96.70;;;;;;5099177;28;20035;-77
2021/05/15 09:13:05;;;;;;;1.75;0.68;;;17.90;96.70;;;;;;5100110;28;20044;-76
2021/05/15 09:15:42;;;;;;;3.58;0.50;;;17.90;96.70;;;;;;5082085;28;20051;-76
2021/05/15 09:18:14;;;;;;;2.90;1.10;;;18.00;96.70;;;;;;5098547;28;20489;-76
2021/05/15 09:20:44;;;;;;;2.03;1.17;;;18.00;96.70;;;;;;5102454;28;20052;-76
2021/05/15 09:23:18;;;;;;;2.45;1.10;;;18.30;96.70;;;;;;5098176;28;20100;-76
2021/05/15 09:25:57;;;;;;;2.08;1.25;;;18.20;96.70;;;;;;5103267;28;20050;-77
2021/05/15 09:28:36;;;;;;;2.95;0.82;;;17.90;96.70;;;;;;5082513;28;20117;-76
2021/05/15 09:31:16;;;;;;;2.55;1.13;;;18.10;96.70;;;;;;5095775;28;20113;-77
2021/05/15 09:33:47;;;;;;;3.00;1.02;;;18.00;96.70;;;;;;5099305;28;20498;-77
2021/05/15 09:36:18;;;;;;;2.47;0.90;;;17.90;96.70;;;;;;5102911;28;20525;-78
2021/05/15 09:39:06;;;;;;;2.95;0.73;;;17.80;96.70;;;;;;5099902;28;20477;-79
2021/05/15 09:41:38;;;;;;;2.47;0.80;;;17.80;96.70;;;;;;5098772;28;20036;-79
2021/05/15 09:44:09;;;;;;;3.60;0.73;;;17.90;96.70;;;;;;5101987;28;20079;-78
2021/05/15 09:46:39;;;;;;;3.13;0.88;;;18.10;96.70;;;;;;5097158;28;20122;-77
2021/05/15 09:49:09;;;;;;;3.75;0.55;;;18.20;96.70;;;;;;5104412;28;20284;-77
2021/05/15 09:51:40;;;;;;;3.10;1.08;;;18.50;96.70;;;;;;5100276;28;20051;-77
2021/05/15 09:54:17;;;;;;;1.48;0.65;;;18.60;96.70;;;;;;5095105;28;20044;-78
2021/05/15 09:56:56;;;;;;;2.00;0.50;;;18.70;96.70;;;;;;5097973;28;20047;-77
2021/05/15 09:59:27;;;;;;;3.42;0.60;;;18.80;96.70;;;;;;5104067;28;20042;-77
2021/05/15 10:01:58;;;;;;;3.25;0.60;;;19.10;96.70;;;;;;5098186;28;20396;-77
2021/05/15 10:04:27;;;;;;;3.22;0.70;;;19.10;96.70;;;;;;5107073;27;20040;-77
2021/05/15 10:06:58;;;;;;;3.22;0.60;;;19.10;96.70;;;;;;5101614;28;20047;-78
2021/05/15 10:09:29;;;;;;;2.08;0.65;;;19.20;96.70;;;;;;5098474;28;20055;-78
2021/05/15 10:11:58;;;;;;;7.25;1.05;;;19.30;96.70;;;;;;5080275;28;20048;-79
2021/05/15 10:14:26;;;;;;;1.90;0.60;;;19.10;96.70;;;;;;5102865;27;20043;-79
2021/05/15 10:16:56;;;;;;;3.72;0.85;;;19.00;96.70;;;;;;5099912;28;20039;-79
2021/05/15 10:19:28;;;;;;;2.13;0.70;;;18.90;96.70;;;;;;5103723;28;20043;-79
2021/05/15 10:21:58;;;;;;;4.47;0.90;;;18.70;96.70;;;;;;5097808;28;20541;-79
2021/05/15 10:24:28;;;;;;;2.88;0.68;;;18.60;96.70;;;;;;5100341;28;20039;-78
2021/05/15 10:27:00;;;;;;;4.88;0.80;;;18.70;96.70;;;;;;5100226;28;20078;-79
2021/05/15 10:29:48;;;;;;;4.32;0.60;;;18.70;96.70;;;;;;5100349;28;20039;-78
2021/05/15 10:32:24;;;;;;;4.07;0.70;;;18.80;96.70;;;;;;5102315;28;20074;-78
2021/05/15 10:34:59;;;;;;;2.22;0.52;;;18.90;96.70;;;;;;5099269;28;20043;-77
2021/05/15 10:37:31;;;;;;;2.63;0.50;;;19.20;96.70;;;;;;5094768;28;20039;-77
2021/05/15 10:40:12;;;;;;;2.45;0.90;;;19.10;96.70;;;;;;5099452;28;20126;-79
2021/05/15 10:42:40;;;;;;;5.22;0.82;;;18.90;96.70;;;;;;5095464;28;20060;-78
2021/05/15 10:45:10;;;;;;;3.10;0.75;;;18.90;96.70;;;;;;5097487;28;20059;-77
2021/05/15 10:47:41;;;;;;;2.35;0.70;;;18.70;96.70;;;;;;5099979;28;20078;-78
2021/05/15 10:50:17;;;;;;;3.08;0.65;;;18.80;96.70;;;;;;5081572;28;20279;-77
2021/05/15 10:52:47;;;;;;;2.88;0.65;;;18.90;96.70;;;;;;5101521;28;20047;-77
2021/05/15 10:55:31;;;;;;;2.58;0.63;;;19.00;96.70;;;;;;5080915;28;20058;-77
2021/05/15 10:58:08;;;;;;;2.80;0.93;;;19.00;96.70;;;;;;5099621;28;20509;-77
2021/05/15 11:00:37;;;;;;;3.70;0.90;;;19.00;96.70;;;;;;5098656;28;20549;-77
2021/05/15 11:03:06;;;;;;;4.93;1.15;;;19.10;96.70;;;;;;5099240;28;20068;-77
2021/05/15 11:05:42;;;;;;;5.10;1.00;;;19.00;96.70;;;;;;5095932;28;20040;-77
2021/05/15 11:08:22;;;;;;;4.18;0.98;;;19.20;96.70;;;;;;5099281;28;20051;-76
2021/05/15 11:10:51;;;;;;;5.85;1.10;;;19.10;96.70;;;;;;5098925;28;20421;-76
2021/05/15 11:13:20;;;;;;;6.95;1.10;;;19.10;96.70;;;;;;5097935;28;20492;-77
2021/05/15 11:15:49;;;;;;;4.18;0.82;;;18.80;96.70;;;;;;5103652;27;20062;-77
2021/05/15 11:18:28;;;;;;;2.55;0.90;;;18.90;96.70;;;;;;5100725;28;20497;-77
2021/05/15 11:21:03;;;;;;;3.17;0.85;;;19.10;96.70;;;;;;5099999;28;20039;-77
2021/05/15 11:23:37;;;;;;;1.70;0.90;;;19.20;96.70;;;;;;5094944;28;20039;-77
2021/05/15 11:26:10;;;;;;;3.97;0.70;;;19.40;96.70;;;;;;5100635;28;20096;-78
2021/05/15 11:28:38;;;;;;;3.60;0.80;;;19.50;96.70;;;;;;5092317;28;20052;-78
2021/05/15 11:31:11;;;;;;;6.85;1.45;;;19.30;96.70;;;;;;5099236;28;20046;-77
2021/05/15 11:33:39;;;;;;;4.40;1.17;;;19.60;96.70;;;;;;5100689;28;20039;-77
2021/05/15 11:36:08;;;;;;;2.35;0.82;;;19.70;96.70;;;;;;5101354;28;20035;-76
2021/05/15 11:38:38;;;;;;;6.85;1.50;;;19.70;96.70;;;;;;5094635;28;20320;-77
2021/05/15 11:41:10;;;;;;;2.40;0.63;;;19.70;96.70;;;;;;5100105;28;20088;-76
2021/05/15 11:43:40;;;;;;;3.67;0.63;;;19.80;96.70;;;;;;5096924;28;20122;-77
2021/05/15 11:46:10;;;;;;;1.98;0.68;;;19.70;96.70;;;;;;5077273;28;20134;-76
2021/05/15 11:48:42;;;;;;;5.13;1.23;;;19.70;96.70;;;;;;5098251;28;20301;-77
2021/05/15 11:51:12;;;;;;;4.22;1.05;;;19.60;96.70;;;;;;5089316;28;20089;-77
2021/05/15 11:53:44;;;;;;;3.25;0.75;;;19.70;96.70;;;;;;5095951;28;20059;-78
2021/05/15 11:56:13;;;;;;;5.85;1.25;;;19.80;96.70;;;;;;5090495;28;20108;-77
2021/05/15 11:58:46;;;;;;;7.50;1.02;;;19.90;96.70;;;;;;5096144;28;20089;-77
2021/05/15 12:01:18;;;;;;;4.53;0.80;;;19.90;96.40;;;;;;5100882;27;20093;-77
2021/05/15 12:03:47;;;;;;;5.25;0.73;;;20.00;95.50;;;;;;5095893;28;20040;-77
2021/05/15 12:06:17;;;;;;;7.97;0.90;;;19.90;94.90;;;;;;5093912;28;20036;-78
2021/05/15 12:08:46;;;;;;;4.30;0.73;;;20.00;94.60;;;;;;5099744;28;20130;-77
2021/05/15 12:11:15;;;;;;;3.13;1.00;;;20.20;92.90;;;;;;5098926;28;20037;-77
2021/05/15 12:13:51;;;;;;;4.22;1.15;;;20.40;92.00;;;;;;5095909;28;20534;-79
2021/05/15 12:16:20;;;;;;;3.10;0.70;;;20.60;91.50;;;;;;5095583;28;20048;-78
2021/05/15 12:18:49;;;;;;;2.95;0.55;;;20.40;91.40;;;;;;5098963;28;20118;-78
2021/05/15 12:21:24;;;;;;;2.83;0.75;;;20.40;91.00;;;;;;5097153;28;20091;-78
2021/05/15 12:24:00;;;;;;;4.32;0.90;;;20.40;90.20;;;;;;5099923;28;20186;-77
2021/05/15 12:26:29;;;;;;;4.18;0.63;;;20.60;90.40;;;;;;5089631;28;20044;-80
2021/05/15 12:29:02;;;;;;;3.78;0.63;;;20.60;90.20;;;;;;5099803;28;20554;-77
2021/05/15 12:31:33;;;;;;;4.35;0.80;;;20.60;91.10;;;;;;5092477;28;20046;-78
2021/05/15 12:34:07;;;;;;;4.32;0.70;;;20.60;91.50;;;;;;5096417;28;20109;-78
2021/05/15 12:36:38;;;;;;;3.53;0.40;;;20.60;91.70;;;;;;5094777;28;20067;-79
2021/05/15 12:39:11;;;;;;;2.97;0.50;;;20.80;91.10;;;;;;5098229;28;20051;-78
2021/05/15 12:41:41;;;;;;;2.78;0.85;;;20.50;90.20;;;;;;5096055;28;20040;-78
2021/05/15 12:44:11;;;;;;;5.40;0.98;;;20.50;90.30;;;;;;5101966;28;20035;-79
2021/05/15 12:46:40;;;;;;;4.07;0.70;;;20.60;89.70;;;;;;5103955;28;20042;-78
2021/05/15 12:49:11;;;;;;;2.95;0.43;;;20.40;89.50;;;;;;5100475;28;20060;-79
2021/05/15 12:51:43;;;;;;;6.30;1.40;;;20.30;89.80;;;;;;5101185;28;20043;-78
2021/05/15 12:54:15;;;;;;;3.95;0.55;;;20.40;90.00;;;;;;5092800;28;20052;-79
2021/05/15 12:56:50;;;;;;;2.85;0.50;;;20.40;89.40;;;;;;5096151;28;20067;-78
2021/05/15 12:59:27;;;;;;;4.78;0.80;;;20.40;88.80;;;;;;5082663;28;20047;-79
2021/05/15 13:02:10;;;;;;;5.35;1.27;;;20.60;89.30;;;;;;5080763;28;20124;-79